メインページ
METAR-TAF:

METAR-TAF

空港 :

明野駐屯地

明野, 日本

緯度: 34-32N, 経度: 136-41E, 海抜: 6m

現時点の気象観測

当レポートは1時間7分前の06:16(UTC)に作成
南西の風 4kt
気温 25°C
湿度 79%
気圧 1011 hPa
視程10km以上
高度2000ftの雲はほとんどない
高度5000ftの千切れ雲あり
高度10000ftの千切れ雲あり

METAR: RJOE 200616Z 23004KT 9999 FEW020 BKN050 BKN100 25/21 Q1011 RMK 1CU020 5SC050 6AC100 A2985

時間: 16:23 (07:23 UTC)


TAF: 見つかりません

4,000以上の空港の気象観測と天気予報(METAR報とTAF報)

利用可能な観測所は地図上に黄色い丸と赤い丸で示す。

丸の上にカーソルを重ねると観測所名を参照できる。

次にクリックすると気象観測と天気予報を参照できる。

マップの切り替え:黒色「×」印の緑ボタンをクリックして拡大、「-」印の緑ボタンをクリックして縮小、緑色の三角印をクリックして隣りの地図に切り替え


METAR-TAF: